• Join FlightAware (Why Join?)
  • Login
  • US Flag 
02:59PM EST


 

Airport Tracker/Info


-or-


 

Live Flight TrackerFlight Track Log ✈ SWA1044 ✈ 09-Apr-2013 ✈ KMSY - KLAS

Flight Track Log - Related Links

Times and Time Zones

All times are in EDT time to prevent confusion due to time zone crossing. See the SWA1044 flight status page for this flight to view local times or setup timezone preferences in your user account.

Time Position Orientation Groundspeed Altitude Reporting Facility
EDT Latitude Longitude Course Direction KTS MPH feet Rate Location/Type
12:05PM 29.9511 -90.2633 195° South 177 204 2,200  Level Houston Center
12:06PM 29.9258 -90.3214 243° Southwest 254 292 5,600 2,855 Climbing Houston Center
12:07PM 29.9822 -90.3867 315° West 273 314 8,100 2,544 Climbing Houston Center
12:08PM 30.0400 -90.4603 312° West 300 345 10,900 2,304 Climbing Houston Center
12:09PM 30.1089 -90.5431 314° West 362 417 12,900 2,226 Climbing Houston Center
12:10PM 30.1800 -90.6311 313° West 373 429 15,500 2,661 Climbing Houston Center
12:11PM 30.2531 -90.7233 313° West 386 444 18,400 2,613 Climbing Houston Center
12:12PM 30.3397 -90.8325 313° West 385 443 20,900 1,887 Climbing Houston Center
12:13PM 30.4200 -90.9286 314° West 409 471 22,300 1,597 Climbing Houston Center
12:14PM 30.5064 -91.0297 315° West 435 501 24,200 1,742 Climbing Houston Center
12:16PM 30.5658 -91.1525 299° West 441 507 25,900 1,584 Climbing Houston Center
12:17PM 30.6167 -91.2811 295° West 442 509 27,500 1,488 Climbing Houston Center
12:18PM 30.6664 -91.4119 294° West 444 511 29,000 1,645 Climbing Houston Center
12:19PM 30.7181 -91.5439 295° West 441 507 30,900 1,694 Climbing Houston Center
12:20PM 30.7789 -91.6972 295° West 437 503 32,500 1,452 Climbing Houston Center
12:21PM 30.8294 -91.8242 295° West 434 499 33,900 726 Climbing Houston Center
12:22PM 30.8783 -91.9506 294° West 431 496 34,000 48 Climbing Houston Center
12:23PM 30.9272 -92.0769 294° West 430 495 34,000  Level Houston Center
12:24PM 30.9767 -92.2028 295° West 429 494 34,000  Level Houston Center
12:25PM 31.0328 -92.3489 294° West 422 486 34,000  Level Houston Center
12:26PM 31.0803 -92.4739 294° West 422 486 34,000  Level Houston Center
12:27PM 31.1283 -92.6008 294° West 428 493 34,000  Level Houston Center
12:28PM 31.1778 -92.7269 295° West 430 495 34,000  Level Houston Center
12:29PM 31.2261 -92.8544 294° West 431 496 34,000 48 Level Houston Center
12:30PM 31.2844 -93.0058 294° West 429 494 34,100 576 Climbing Houston Center
12:31PM 31.3328 -93.1325 294° West 429 494 35,200 912 Climbing Houston Center
12:32PM 31.3800 -93.2586 294° West 426 490 36,000 387 Climbing Houston Center
12:33PM 31.4331 -93.4006 294° West 424 488 36,000  Level Houston Center
12:34PM 31.4803 -93.5267 294° West 424 488 36,000  Level Houston Center
12:35PM 31.5322 -93.6633 294° West 423 487 36,000  Level Houston Center
12:36PM 31.5792 -93.7906 293° West 427 491 36,000  Level Houston Center
12:37PM 31.6267 -93.9153 294° West 422 486 36,000  Level Houston Center
12:38PM 31.6444 -93.9703 291° West 426 490 36,000  Level Fort Worth Center
12:39PM 31.6917 -94.0978 294° West 426 490 36,000  Level Fort Worth Center
12:40PM 31.7389 -94.2231 294° West 421 484 36,000  Level Fort Worth Center
12:41PM 31.7836 -94.3511 292° West 421 484 36,000  Level Fort Worth Center
12:42PM 31.8325 -94.4767 295° West 426 490 36,000  Level Fort Worth Center
12:43PM 31.8772 -94.6050 292° West 426 490 36,000  Level Fort Worth Center
12:44PM 31.9239 -94.7356 293° West 426 490 36,000  Level Fort Worth Center
12:45PM 31.9683 -94.8617 293° West 433 498 36,000  Level Fort Worth Center
12:46PM 32.0125 -94.9903 292° West 433 498 36,000  Level Fort Worth Center
12:47PM 32.0608 -95.1164 294° West 433 498 36,000  Level Fort Worth Center
12:48PM 32.1050 -95.2478 292° West 433 498 36,000  Level Fort Worth Center
12:49PM 32.1511 -95.3767 293° West 433 498 36,000  Level Fort Worth Center
12:50PM 32.1947 -95.5058 292° West 433 498 36,000  Level Fort Worth Center
12:51PM 32.2406 -95.6303 294° West 428 493 36,000  Level Fort Worth Center
12:52PM 32.2881 -95.7619 293° West 433 498 36,000  Level Fort Worth Center
12:53PM 32.3314 -95.8914 292° West 433 498 36,000  Level Fort Worth Center
12:54PM 32.3769 -96.0211 293° West 433 498 36,000  Level Fort Worth Center
12:55PM 32.4219 -96.1508 292° West 433 498 36,000  Level Fort Worth Center
12:56PM 32.4650 -96.2808 291° West 433 498 36,000  Level Fort Worth Center
12:57PM 32.5058 -96.3961 293° West 433 498 36,000  Level Fort Worth Center
12:58PM 32.5483 -96.5236 292° West 433 498 36,000  Level Fort Worth Center
12:59PM 32.5931 -96.6539 292° West 433 498 36,000  Level Fort Worth Center
01:00PM 32.6356 -96.7819 292° West 428 493 36,000  Level Fort Worth Center
01:01PM 32.6778 -96.9100 291° West 428 493 36,000  Level Fort Worth Center
01:02PM 32.7286 -97.0553 293° West 428 493 36,000  Level Fort Worth Center
01:03PM 32.7664 -97.1714 291° West 428 493 36,000 100 Level Fort Worth Center
01:04PM 32.8125 -97.3194 290° West 428 493 36,200 650 Climbing Fort Worth Center
01:05PM 32.8564 -97.4506 292° West 433 498 37,300 900 Climbing Fort Worth Center
01:06PM 32.9000 -97.5742 293° West 426 490 38,000 350 Climbing Fort Worth Center
01:07PM 32.9375 -97.6881 291° West 416 479 38,000  Level Fort Worth Center
01:08PM 32.9789 -97.8122 292° West 416 479 38,000  Level Fort Worth Center
01:09PM 33.0200 -97.9361 292° West 410 472 38,000  Level Fort Worth Center
01:10PM 33.0614 -98.0628 291° West 410 472 38,000  Level Fort Worth Center
01:11PM 33.1022 -98.1872 291° West 410 472 38,000  Level Fort Worth Center
01:12PM 33.1431 -98.3239 290° West 410 472 38,000  Level Fort Worth Center
01:13PM 33.1861 -98.4486 292° West 404 465 38,000  Level Fort Worth Center
01:14PM 33.2247 -98.5681 291° West 394 453 38,000  Level Fort Worth Center
01:15PM 33.2631 -98.6903 291° West 394 453 38,000  Level Fort Worth Center
01:16PM 33.3036 -98.8153 291° West 394 453 38,000  Level Fort Worth Center
01:17PM 33.3439 -98.9403 291° West 394 453 38,000  Level Fort Worth Center
01:18PM 33.3819 -99.0678 290° West 401 461 38,000  Level Fort Worth Center
01:19PM 33.4219 -99.1931 291° West 401 461 38,000  Level Fort Worth Center
01:20PM 33.4617 -99.3233 290° West 406 467 38,000  Level Fort Worth Center
01:21PM 33.4994 -99.4411 291° West 416 479 38,000  Level Fort Worth Center
01:22PM 33.5411 -99.5717 291° West 416 479 38,000  Level Fort Worth Center
01:23PM 33.5806 -99.7022 290° West 421 484 38,000  Level Fort Worth Center
01:24PM 33.6219 -99.8381 290° West 426 490 38,000  Level Fort Worth Center
01:25PM 33.6611 -99.9664 290° West 426 490 38,000  Level Fort Worth Center
01:26PM 33.6981 -100.0897 290° West 413 475 38,000  Level Fort Worth Center
01:27PM 33.7369 -100.2158 290° West 406 467 38,000  Level Fort Worth Center
01:28PM 33.7739 -100.3369 290° West 401 461 38,000  Level Fort Worth Center
01:29PM 33.8128 -100.4633 290° West 401 461 38,000  Level Fort Worth Center
01:30PM 33.8511 -100.5922 290° West 401 461 38,000  Level Fort Worth Center
01:31PM 33.8875 -100.7161 290° West 401 461 38,000  Level Fort Worth Center
01:32PM 33.9239 -100.8403 289° West 401 461 38,000  Level Fort Worth Center
01:33PM 33.9578 -100.9692 288° West 396 456 38,000  Level Fort Worth Center
01:34PM 33.9983 -101.0886 292° West 396 456 38,000  Level Fort Worth Center
01:35PM 34.0378 -101.2306 289° West 390 449 38,000  Level Fort Worth Center
01:36PM 34.0719 -101.3425 290° West 396 456 38,000  Level Fort Worth Center
01:37PM 34.1094 -101.4769 289° West 388 447 38,000  Level Fort Worth Center
01:38PM 34.1411 -101.5864 289° West 388 447 38,000  Level Fort Worth Center
01:39PM 34.1803 -101.7239 289° West 394 453 38,000  Level Fort Worth Center
01:40PM 34.2119 -101.8333 289° West 394 453 38,000  Level Fort Worth Center
01:41PM 34.2469 -101.9633 288° West 396 456 38,000  Level Fort Worth Center
01:42PM 34.2861 -102.0911 290° West 390 449 38,000  Level Fort Worth Center
01:42PM 34.3031 -102.1497 289° West 390 449 38,000  Level Albuquerque Center
01:43PM 34.3378 -102.2733 289° West 389 448 38,000  Level Albuquerque Center
01:44PM 34.3722 -102.3975 289° West 389 448 38,000  Level Albuquerque Center
01:45PM 34.4086 -102.5247 289° West 394 453 38,000  Level Albuquerque Center
01:46PM 34.4503 -102.6769 288° West 395 455 38,000  Level Albuquerque Center
01:47PM 34.4861 -102.8039 289° West 398 458 38,000  Level Albuquerque Center
01:48PM 34.5111 -102.9278 284° West 389 448 38,000  Level Albuquerque Center
01:49PM 34.5297 -103.0586 280° West 388 447 38,000  Level Albuquerque Center
01:50PM 34.5494 -103.1864 281° West 384 442 38,000  Level Albuquerque Center
01:51PM 34.5681 -103.3122 280° West 378 435 38,000  Level Albuquerque Center
01:52PM 34.5914 -103.4614 281° West 381 438 38,000  Level Albuquerque Center
01:54PM 34.6103 -103.5889 280° West 381 438 38,000  Level Albuquerque Center
01:55PM 34.6294 -103.7172 280° West 382 440 38,000  Level Albuquerque Center
01:56PM 34.6475 -103.8458 280° West 382 440 38,000  Level Albuquerque Center
01:57PM 34.6661 -103.9731 280° West 379 436 38,000  Level Albuquerque Center
01:58PM 34.6839 -104.1006 280° West 378 435 38,000  Level Albuquerque Center
01:59PM 34.7033 -104.2317 280° West 385 443 38,000  Level Albuquerque Center
02:00PM 34.7222 -104.3656 280° West 394 453 38,000  Level Albuquerque Center
02:01PM 34.7442 -104.5217 280° West 396 456 38,000  Level Albuquerque Center
02:02PM 34.7631 -104.6575 280° West 400 460 38,000  Level Albuquerque Center
02:03PM 34.7811 -104.7953 279° West 405 466 38,000  Level Albuquerque Center
02:04PM 34.8008 -104.9381 280° West 417 480 38,000  Level Albuquerque Center
02:05PM 34.8194 -105.0792 279° West 419 482 38,000  Level Albuquerque Center
02:06PM 34.8406 -105.2217 280° West 421 484 38,000  Level Albuquerque Center
02:07PM 34.8619 -105.3656 280° West 426 490 38,000  Level Albuquerque Center
02:08PM 34.8797 -105.5092 279° West 425 489 38,000  Level Albuquerque Center
02:09PM 34.8983 -105.6536 279° West 427 491 38,000  Level Albuquerque Center
02:10PM 34.9197 -105.8228 279° West 430 495 38,000  Level Albuquerque Center
02:11PM 34.9364 -105.9706 278° West 436 502 38,000  Level Albuquerque Center
02:12PM 34.9550 -106.1197 279° West 442 509 38,000  Level Albuquerque Center
02:13PM 34.9708 -106.2669 278° West 436 502 38,000  Level Albuquerque Center
02:14PM 34.9878 -106.4142 278° West 435 501 38,000  Level Albuquerque Center
02:15PM 35.0069 -106.5783 278° West 443 510 38,000  Level Albuquerque Center
02:16PM 35.0228 -106.7189 278° West 440 506 38,000  Level Albuquerque Center
02:17PM 35.0403 -106.8578 279° West 435 501 38,000  Level Albuquerque Center
02:18PM 35.0608 -107.0167 279° West 430 495 38,000  Level Albuquerque Center
02:19PM 35.0775 -107.1558 278° West 432 497 38,000  Level Albuquerque Center
02:20PM 35.0964 -107.3186 278° West 433 498 38,000  Level Albuquerque Center
02:21PM 35.1114 -107.4581 278° West 433 498 38,000  Level Albuquerque Center
02:22PM 35.1292 -107.6219 278° West 436 502 38,000  Level Albuquerque Center
02:23PM 35.1450 -107.7619 278° West 435 501 38,000  Level Albuquerque Center
02:24PM 35.1581 -107.9047 276° West 440 506 38,000  Level Albuquerque Center
02:25PM 35.1753 -108.0686 277° West 438 504 38,000  Level Albuquerque Center
02:27PM 35.1908 -108.2072 278° West 432 497 38,000  Level Albuquerque Center
02:28PM 35.2064 -108.3686 277° West 429 494 38,000  Level Albuquerque Center
02:29PM 35.2208 -108.5086 277° West 430 495 38,000  Level Albuquerque Center
02:30PM 35.2375 -108.6719 277° West 432 497 38,000  Level Albuquerque Center
02:31PM 35.2517 -108.8117 277° West 432 497 38,000  Level Albuquerque Center
02:32PM 35.2658 -108.9506 277° West 430 495 38,000  Level Albuquerque Center
02:33PM 35.2817 -109.1131 277° West 430 495 38,000  Level Albuquerque Center
02:34PM 35.2947 -109.2544 276° West 432 497 38,000  Level Albuquerque Center
02:35PM 35.3108 -109.4203 277° West 436 502 38,000  Level Albuquerque Center
02:36PM 35.3233 -109.5614 276° West 435 501 38,000  Level Albuquerque Center
02:37PM 35.3369 -109.7053 277° West 439 505 38,000  Level Albuquerque Center
02:38PM 35.3531 -109.8717 277° West 447 514 38,000  Level Albuquerque Center
02:39PM 35.3650 -110.0133 276° West 440 506 38,000  Level Albuquerque Center
02:40PM 35.3767 -110.1761 275° West 433 498 38,000  Level Albuquerque Center
02:41PM 35.3875 -110.3139 276° West 429 494 38,000  Level Albuquerque Center
02:42PM 35.4019 -110.4769 276° West 429 494 38,000  Level Albuquerque Center
02:43PM 35.4142 -110.6153 276° West 428 493 38,000  Level Albuquerque Center
02:44PM 35.4242 -110.7550 275° West 429 494 38,000  Level Albuquerque Center
02:45PM 35.4383 -110.9189 276° West 431 496 38,000 -919 Level Albuquerque Center
02:46PM 35.4500 -111.0614 276° West 436 502 36,100 -2,177 Descending Albuquerque Center
02:47PM 35.4631 -111.2308 275° West 444 511 33,500 -2,390 Descending Albuquerque Center
02:48PM 35.4750 -111.3761 276° West 448 516 31,200 -1,707 Descending Albuquerque Center
02:49PM 35.4889 -111.5483 276° West 468 539 30,000 -581 Descending Albuquerque Center
02:50PM 35.5011 -111.7017 276° West 459 528 30,000  Level Albuquerque Center
02:51PM 35.5117 -111.8575 275° West 460 529 30,000  Level Albuquerque Center
02:52PM 35.5228 -112.0122 275° West 458 527 30,000  Level Albuquerque Center
02:53PM 35.5333 -112.1644 275° West 454 522 30,000 -49 Level Albuquerque Center
02:54PM 35.5444 -112.3144 275° West 448 516 29,900 -683 Descending Albuquerque Center
02:55PM 35.5553 -112.4881 274° West 431 496 28,600 -1,077 Descending Albuquerque Center
02:56PM 35.5583 -112.5194 277° West 437 503 28,500 -615 Descending Los Angeles Center
02:57PM 35.5692 -112.6731 275° West 439 505 27,800 -823 Descending Los Angeles Center
02:58PM 35.5800 -112.8222 275° West 439 505 26,800 -871 Descending Los Angeles Center
02:59PM 35.5908 -112.9875 275° West 430 495 26,000 -387 Descending Los Angeles Center
03:00PM 35.5994 -113.1361 274° West 433 498 26,000  Level Los Angeles Center
03:01PM 35.6081 -113.2769 274° West 433 498 26,000  Level Los Angeles Center
03:02PM 35.6167 -113.4211 274° West 428 493 26,000 -532 Level Los Angeles Center
03:03PM 35.6264 -113.5658 275° West 429 494 24,900 -1,854 Descending Los Angeles Center
03:04PM 35.6500 -113.7242 280° West 398 458 22,200 -2,341 Descending Los Angeles Center
03:05PM 35.6694 -113.8531 281° West 388 447 20,100 -2,129 Descending Los Angeles Center
03:06PM 35.6856 -113.9756 279° West 370 426 17,800 -2,129 Descending Los Angeles Center
03:07PM 35.7028 -114.0961 280° West 359 413 15,700 -2,147 Descending Los Angeles Center
03:08PM 35.7186 -114.2008 281° West 360 414 13,900 -2,129 Descending Los Angeles Center
03:08PM 35.7194 -114.2217 273° West 346 398 13,500 -1,800 Descending Los Angeles Center
03:08PM 35.7264 -114.2542 285° West 348 400 13,000 -1,258 Descending Los Angeles Center
03:09PM 35.7344 -114.3319 277° West 331 381 12,200 -556 Descending Los Angeles Center
03:10PM 35.7786 -114.4003 309° West 277 319 12,000 -98 Descending Los Angeles Center
03:11PM 35.8444 -114.4314 339° North 255 293 12,000 -339 Level Los Angeles Center
03:12PM 35.9256 -114.4692 339° North 257 296 11,300 -823 Descending Los Angeles Center
03:13PM 35.9911 -114.5000 339° North 253 291 10,300 -629 Descending Los Angeles Center
03:14PM 36.0414 -114.5408 327° Northwest 229 264 10,000 -339 Descending Los Angeles Center
03:15PM 36.0533 -114.6178 281° West 224 258 9,600 -976 Descending Los Angeles Center
03:16PM 36.0669 -114.6919 283° West 221 254 8,000 -1,073 Descending Los Angeles Center
03:17PM 36.0750 -114.7728 277° West 228 262 7,400 -726 Descending Los Angeles Center
03:18PM 36.0733 -114.8683 269° West 230 265 6,500 -930 Descending Los Angeles Center
03:19PM 36.0731 -114.9564 270° West 225 259 5,400 -878 Descending Los Angeles Center
03:20PM 36.0733 -115.0161 270° West 216 249 4,700 -1,017 Descending Los Angeles Center
03:21PM 36.0736 -115.0656 270° West 176 203 3,400 -1,161 Descending Los Angeles Center
03:22PM 36.0725 -115.1103 268° West 149 171 2,300 -1,065 Descending Los Angeles Center
03:24PM 36.0667 -115.1500 270° West  Level FlightAware Approximate
03:31PM 36.0801 -115.1523 270° West  Level Estimated